Time;durP1;ratioP1;P1;durP2;ratioP2;P2;SDS_P1;SDS_P2;PMS_P1;PMS_P2;Temp;Humidity;BMP_temperature;BMP_pressure;BME280_temperature;BME280_humidity;BME280_pressure;Samples;Min_cycle;Max_cycle;Signal;HPM_P1;HPM_P2
2022/09/29 00:00:08;;;;;;;;;;;24.60;99.90;;;;;;4208366;28;19936;-67
2022/09/29 00:02:13;;;;;;;;;;;24.50;99.90;;;;;;4210867;28;19928;-67
2022/09/29 00:04:26;;;;;;;;;;;24.60;99.90;;;;;;4210596;28;19981;-68
2022/09/29 00:06:31;;;;;;;;;;;24.60;99.90;;;;;;4209507;28;19938;-68
2022/09/29 00:08:36;;;;;;;;;;;24.60;99.90;;;;;;4212742;28;19935;-67
2022/09/29 00:10:41;;;;;;;;;;;24.60;99.90;;;;;;4209683;28;19940;-69
2022/09/29 00:12:53;;;;;;;;;;;24.60;99.90;;;;;;4210769;28;20347;-68
2022/09/29 00:14:56;;;;;;;;;;;24.60;99.90;;;;;;4210225;28;20298;-69
2022/09/29 00:17:01;;;;;;;;;;;24.50;99.90;;;;;;4198419;28;20631;-68
2022/09/29 00:19:05;;;;;;;;;;;24.60;99.90;;;;;;4192324;28;20721;-68
2022/09/29 00:21:11;;;;;;;;;;;24.70;99.90;;;;;;4208449;28;19928;-67
2022/09/29 00:23:18;;;;;;;;;;;24.70;99.90;;;;;;4210428;28;20387;-69
2022/09/29 00:25:26;;;;;;;;;;;24.70;99.90;;;;;;4210364;28;19928;-68
2022/09/29 00:27:31;;;;;;;;;;;24.70;99.90;;;;;;4226067;28;20022;-68
2022/09/29 00:29:40;;;;;;;;;;;24.80;99.90;;;;;;4205201;28;19956;-68
2022/09/29 00:31:46;;;;;;;;;;;24.90;99.90;;;;;;4207692;28;19928;-68
2022/09/29 00:33:50;;;;;;;;;;;24.80;99.90;;;;;;4209766;28;20317;-68
2022/09/29 00:35:57;;;;;;;;;;;24.90;99.90;;;;;;4209920;28;19935;-68
2022/09/29 00:38:02;;;;;;;;;;;24.90;99.90;;;;;;4206605;28;19935;-68
2022/09/29 00:40:08;;;;;;;;;;;24.90;99.90;;;;;;4209981;28;19935;-69
2022/09/29 00:42:12;;;;;;;;;;;24.90;99.90;;;;;;4210056;28;19934;-68
2022/09/29 00:44:31;;;;;;;;;;;24.90;99.90;;;;;;4191972;28;20774;-68
2022/09/29 00:46:57;;;;;;;;;;;25.00;99.90;;;;;;4210003;28;19932;-68
2022/09/29 00:49:02;;;;;;;;;;;25.10;99.90;;;;;;4209046;28;19935;-69
2022/09/29 00:51:07;;;;;;;;;;;25.10;99.90;;;;;;4208774;28;19928;-68
2022/09/29 00:53:13;;;;;;;;;;;25.10;99.90;;;;;;4209223;28;19931;-68
2022/09/29 00:55:30;;;;;;;;;;;25.10;99.90;;;;;;4209345;28;19934;-67
2022/09/29 00:57:36;;;;;;;;;;;25.10;99.90;;;;;;4209092;28;20449;-71
2022/09/29 00:59:49;;;;;;;;;;;25.20;99.90;;;;;;4191728;28;20058;-67
2022/09/29 01:01:53;;;;;;;;;;;25.20;99.90;;;;;;4209269;28;20283;-69
2022/09/29 01:04:09;;;;;;;;;;;25.20;99.90;;;;;;4209529;28;19939;-68
2022/09/29 01:06:16;;;;;;;;;;;25.30;99.90;;;;;;4209594;28;19928;-67
2022/09/29 01:08:24;;;;;;;;;;;25.30;99.90;;;;;;4196532;28;19931;-68
2022/09/29 01:10:30;;;;;;;;;;;25.40;99.90;;;;;;4212748;28;19928;-68
2022/09/29 01:12:35;;;;;;;;;;;25.40;99.90;;;;;;4214472;28;20372;-68
2022/09/29 01:14:48;;;;;;;;;;;25.40;99.90;;;;;;4218939;28;19928;-67
2022/09/29 01:16:56;;;;;;;;;;;25.40;99.90;;;;;;4204679;28;19928;-68
2022/09/29 01:19:16;;;;;;;;;;;25.40;99.90;;;;;;4209124;28;19927;-69
2022/09/29 01:21:48;;;;;;;;;;;25.40;99.90;;;;;;4225084;28;19932;-68
2022/09/29 01:24:24;;;;;;;;;;;25.50;99.90;;;;;;4223785;28;20375;-67
2022/09/29 01:26:34;;;;;;;;;;;25.60;99.90;;;;;;4225634;28;20312;-68
2022/09/29 01:28:48;;;;;;;;;;;25.70;99.90;;;;;;4204148;28;19939;-69
2022/09/29 01:31:10;;;;;;;;;;;25.80;99.90;;;;;;4213373;28;19934;-68
2022/09/29 01:33:29;;;;;;;;;;;25.70;99.90;;;;;;4210628;28;19935;-68
2022/09/29 01:36:02;;;;;;;;;;;25.70;99.90;;;;;;4224900;28;19935;-68
2022/09/29 01:38:29;;;;;;;;;;;25.80;99.90;;;;;;4208495;28;19931;-68
2022/09/29 01:40:41;;;;;;;;;;;25.80;99.90;;;;;;4223166;28;19932;-68
2022/09/29 01:42:52;;;;;;;;;;;25.80;99.90;;;;;;4190013;28;20014;-68
2022/09/29 01:45:11;;;;;;;;;;;25.90;99.90;;;;;;4202182;28;20436;-68
2022/09/29 01:47:25;;;;;;;;;;;26.00;99.90;;;;;;4203278;28;20026;-69
2022/09/29 01:49:44;;;;;;;;;;;26.10;99.90;;;;;;4200968;28;19935;-68
2022/09/29 01:52:00;;;;;;;;;;;26.10;99.90;;;;;;4190288;28;20306;-69
2022/09/29 01:54:23;;;;;;;;;;;26.10;99.90;;;;;;4209384;28;19928;-68
2022/09/29 01:56:51;;;;;;;;;;;26.10;99.90;;;;;;4212517;28;20188;-68
2022/09/29 01:59:04;;;;;;;;;;;26.20;99.90;;;;;;4191645;28;19998;-69
2022/09/29 02:01:09;;;;;;;;;;;26.20;99.90;;;;;;4212235;28;19927;-69
2022/09/29 02:03:18;;;;;;;;;;;26.10;99.90;;;;;;4213382;28;20372;-68
2022/09/29 02:05:27;;;;;;;;;;;26.10;99.90;;;;;;4204607;28;19935;-70
2022/09/29 02:07:39;;;;;;;;;;;26.10;99.90;;;;;;4203279;28;20051;-69
2022/09/29 02:09:44;;;;;;;;;;;26.20;99.90;;;;;;4209801;28;20363;-69
2022/09/29 02:11:48;;;;;;;;;;;26.20;99.90;;;;;;4209278;28;20042;-68
2022/09/29 02:13:59;;;;;;;;;;;26.20;99.90;;;;;;4190468;28;19929;-68
2022/09/29 02:16:03;;;;;;;;;;;26.30;99.90;;;;;;4200326;28;21508;-69
2022/09/29 02:18:10;;;;;;;;;;;26.30;99.90;;;;;;4204523;28;19928;-69
2022/09/29 02:20:17;;;;;;;;;;;26.40;99.90;;;;;;4188516;28;19935;-68
2022/09/29 02:22:22;;;;;;;;;;;26.40;99.90;;;;;;4209820;28;19928;-69
2022/09/29 02:24:26;;;;;;;;;;;26.50;99.90;;;;;;4202547;28;19927;-69
2022/09/29 02:26:35;;;;;;;;;;;26.50;99.90;;;;;;4205455;28;19935;-69
2022/09/29 02:28:39;;;;;;;;;;;26.40;99.90;;;;;;4184646;28;19928;-69
2022/09/29 02:30:44;;;;;;;;;;;26.40;99.90;;;;;;4208276;28;20042;-69
2022/09/29 02:32:48;;;;;;;;;;;26.40;99.90;;;;;;4211151;28;20337;-69
2022/09/29 02:34:53;;;;;;;;;;;26.50;99.90;;;;;;4207544;28;20321;-69
2022/09/29 02:37:10;;;;;;;;;;;26.50;99.90;;;;;;4218750;28;19928;-69
2022/09/29 02:39:26;;;;;;;;;;;26.50;99.90;;;;;;4211858;28;19928;-69
2022/09/29 02:41:40;;;;;;;;;;;26.50;99.90;;;;;;4218446;28;19968;-69
2022/09/29 02:44:05;;;;;;;;;;;26.50;99.90;;;;;;4184690;28;20594;-69
2022/09/29 02:46:21;;;;;;;;;;;26.50;99.90;;;;;;4222727;28;19988;-69
2022/09/29 02:48:51;;;;;;;;;;;26.40;99.90;;;;;;4206820;28;19989;-69
2022/09/29 02:51:06;;;;;;;;;;;26.40;99.90;;;;;;4185241;28;19928;-69
2022/09/29 02:53:31;;;;;;;;;;;26.40;99.90;;;;;;4210715;28;19928;-69
2022/09/29 02:56:10;;;;;;;;;;;26.50;99.90;;;;;;4217460;28;20031;-68
2022/09/29 02:58:20;;;;;;;;;;;26.60;99.90;;;;;;4221643;28;19985;-68
2022/09/29 03:00:24;;;;;;;;;;;26.70;99.90;;;;;;4205212;28;19935;-69
2022/09/29 03:02:29;;;;;;;;;;;26.80;99.90;;;;;;4192393;28;20418;-68
2022/09/29 03:04:34;;;;;;;;;;;26.80;99.90;;;;;;4214213;28;19955;-69
2022/09/29 03:06:39;;;;;;;;;;;26.90;99.90;;;;;;4187207;28;20422;-68
2022/09/29 03:08:45;;;;;;;;;;;26.90;99.90;;;;;;4208369;28;20406;-69
2022/09/29 03:10:50;;;;;;;;;;;26.90;99.90;;;;;;4200729;28;20027;-68
2022/09/29 03:12:54;;;;;;;;;;;26.80;99.90;;;;;;4217960;28;19967;-68
2022/09/29 03:14:58;;;;;;;;;;;26.70;99.90;;;;;;4213536;28;20224;-69
2022/09/29 03:17:03;;;;;;;;;;;26.60;99.90;;;;;;4210393;28;19928;-69
2022/09/29 03:19:11;;;;;;;;;;;26.70;99.90;;;;;;4214753;28;20039;-70
2022/09/29 03:21:15;;;;;;;;;;;26.70;99.90;;;;;;4223704;28;19990;-69
2022/09/29 03:23:22;;;;;;;;;;;26.70;99.90;;;;;;4225658;28;20019;-68
2022/09/29 03:25:27;;;;;;;;;;;26.80;99.90;;;;;;4207173;28;20386;-68
2022/09/29 03:27:32;;;;;;;;;;;26.90;99.90;;;;;;4213378;28;19927;-69
2022/09/29 03:29:36;;;;;;;;;;;27.00;99.90;;;;;;4213094;28;19932;-69
2022/09/29 03:31:42;;;;;;;;;;;27.00;99.90;;;;;;4212714;28;20341;-68
2022/09/29 03:33:46;;;;;;;;;;;27.10;99.90;;;;;;4211139;28;19938;-68
2022/09/29 03:35:51;;;;;;;;;;;27.30;99.90;;;;;;4189329;28;19929;-68
2022/09/29 03:37:59;;;;;;;;;;;27.30;99.90;;;;;;4210489;28;19928;-69
2022/09/29 03:40:04;;;;;;;;;;;27.30;99.90;;;;;;4213035;28;19938;-68
2022/09/29 03:42:09;;;;;;;;;;;27.50;99.90;;;;;;4190522;28;20394;-69
2022/09/29 03:44:15;;;;;;;;;;;27.50;99.90;;;;;;4209988;28;19950;-69
2022/09/29 03:46:20;;;;;;;;;;;27.50;99.90;;;;;;4206106;28;19981;-68
2022/09/29 03:48:35;;;;;;;;;;;27.60;99.90;;;;;;4207039;28;19935;-68
2022/09/29 03:50:44;;;;;;;;;;;27.70;99.90;;;;;;4210314;28;19981;-68
2022/09/29 03:52:57;;;;;;;;;;;27.70;99.90;;;;;;4213951;28;20313;-67
2022/09/29 03:55:04;;;;;;;;;;;27.60;99.90;;;;;;4219988;28;19935;-69
2022/09/29 03:57:14;;;;;;;;;;;27.60;99.90;;;;;;4216818;28;20440;-68
2022/09/29 03:59:23;;;;;;;;;;;27.50;99.90;;;;;;4214598;28;19927;-69
2022/09/29 04:01:31;;;;;;;;;;;27.50;99.90;;;;;;4209128;28;20376;-68
2022/09/29 04:03:37;;;;;;;;;;;27.40;99.90;;;;;;4209972;28;20600;-68
2022/09/29 04:05:45;;;;;;;;;;;27.40;99.90;;;;;;4211333;28;19935;-68
2022/09/29 04:07:58;;;;;;;;;;;27.40;99.90;;;;;;4209125;28;20025;-68
2022/09/29 04:10:09;;;;;;;;;;;27.40;99.90;;;;;;4209500;28;19928;-68
2022/09/29 04:12:26;;;;;;;;;;;27.30;99.90;;;;;;4215951;28;19963;-69
2022/09/29 04:14:36;;;;;;;;;;;27.30;99.90;;;;;;4225951;28;19958;-69
2022/09/29 04:16:43;;;;;;;;;;;27.30;99.90;;;;;;4205257;28;19935;-69
2022/09/29 04:18:48;;;;;;;;;;;27.30;99.90;;;;;;4212402;28;20367;-69
2022/09/29 04:21:11;;;;;;;;;;;27.30;99.90;;;;;;4179530;28;19990;-69
2022/09/29 04:23:16;;;;;;;;;;;27.30;99.90;;;;;;4207296;28;19938;-69
2022/09/29 04:25:20;;;;;;;;;;;27.20;99.90;;;;;;4212778;28;19938;-70
2022/09/29 04:27:27;;;;;;;;;;;27.10;99.90;;;;;;4218345;28;19981;-71
2022/09/29 04:29:34;;;;;;;;;;;27.10;99.90;;;;;;4215552;28;19951;-69
2022/09/29 04:31:39;;;;;;;;;;;27.20;99.90;;;;;;4212890;28;19943;-69
2022/09/29 04:33:46;;;;;;;;;;;27.30;99.90;;;;;;4215616;28;19931;-68
2022/09/29 04:35:59;;;;;;;;;;;27.40;99.90;;;;;;4209387;28;20303;-69
2022/09/29 04:38:11;;;;;;;;;;;27.40;99.90;;;;;;4204247;28;20014;-69
2022/09/29 04:40:16;;;;;;;;;;;27.50;99.90;;;;;;4188684;28;19982;-69
2022/09/29 04:42:21;;;;;;;;;;;27.50;99.90;;;;;;4224980;28;20023;-70
2022/09/29 04:44:32;;;;;;;;;;;27.50;99.90;;;;;;4210333;28;19928;-70
2022/09/29 04:46:53;;;;;;;;;;;27.60;99.90;;;;;;4209471;28;19928;-69
2022/09/29 04:48:59;;;;;;;;;;;27.60;99.90;;;;;;4210008;28;19932;-69
2022/09/29 04:51:04;;;;;;;;;;;27.60;99.90;;;;;;4209361;28;19935;-69
2022/09/29 04:53:10;;;;;;;;;;;27.60;99.90;;;;;;4207166;28;19928;-69
2022/09/29 04:55:16;;;;;;;;;;;27.70;99.90;;;;;;4217876;28;19932;-69
2022/09/29 04:57:20;;;;;;;;;;;27.70;99.90;;;;;;4207597;28;20420;-68
2022/09/29 04:59:24;;;;;;;;;;;27.60;99.90;;;;;;4219429;28;19928;-69
2022/09/29 05:01:30;;;;;;;;;;;27.60;99.90;;;;;;4221927;28;19950;-68
2022/09/29 05:03:34;;;;;;;;;;;27.60;99.90;;;;;;4224180;28;20030;-69
2022/09/29 05:05:38;;;;;;;;;;;27.60;99.90;;;;;;4212356;28;19998;-69
2022/09/29 05:07:44;;;;;;;;;;;27.60;99.90;;;;;;4216617;28;20001;-68
2022/09/29 05:09:48;;;;;;;;;;;27.60;99.90;;;;;;4203962;28;20423;-68
2022/09/29 05:11:53;;;;;;;;;;;27.60;99.90;;;;;;4206811;28;19934;-67
2022/09/29 05:13:57;;;;;;;;;;;27.70;99.90;;;;;;4208489;28;19928;-68
2022/09/29 05:16:02;;;;;;;;;;;27.70;99.90;;;;;;4206993;28;19978;-67
2022/09/29 05:18:15;;;;;;;;;;;27.70;99.90;;;;;;4208504;28;19968;-67
2022/09/29 05:20:21;;;;;;;;;;;27.80;99.90;;;;;;4210009;28;20026;-68
2022/09/29 05:22:30;;;;;;;;;;;27.80;99.90;;;;;;4217750;28;19932;-68
2022/09/29 05:24:44;;;;;;;;;;;27.80;99.90;;;;;;4208010;28;20286;-67
2022/09/29 05:26:52;;;;;;;;;;;27.80;99.90;;;;;;4208304;28;20027;-68
2022/09/29 05:29:03;;;;;;;;;;;27.80;99.90;;;;;;4208566;28;19928;-68
2022/09/29 05:31:09;;;;;;;;;;;27.80;99.90;;;;;;4205830;28;19928;-68
2022/09/29 05:33:13;;;;;;;;;;;27.80;99.90;;;;;;4190081;28;19928;-68
2022/09/29 05:35:17;;;;;;;;;;;27.60;99.90;;;;;;4208592;28;19935;-68
2022/09/29 05:37:21;;;;;;;;;;;27.40;99.90;;;;;;4218019;28;19935;-68
2022/09/29 05:39:30;;;;;;;;;;;27.30;99.90;;;;;;4213103;28;20033;-68
2022/09/29 05:41:36;;;;;;;;;;;27.20;99.90;;;;;;4216207;28;20140;-69
2022/09/29 05:43:44;;;;;;;;;;;27.20;99.90;;;;;;4210139;28;19928;-67
2022/09/29 05:45:48;;;;;;;;;;;27.20;99.90;;;;;;4227910;28;19928;-67
2022/09/29 05:47:53;;;;;;;;;;;27.30;99.90;;;;;;4218057;28;20401;-67
2022/09/29 05:49:58;;;;;;;;;;;27.40;99.90;;;;;;4218002;28;19967;-67
2022/09/29 05:52:02;;;;;;;;;;;27.50;99.90;;;;;;4216416;28;19982;-67
2022/09/29 05:54:07;;;;;;;;;;;27.50;99.90;;;;;;4208844;28;19932;-66
2022/09/29 05:56:13;;;;;;;;;;;27.30;99.90;;;;;;4202200;28;19929;-67
2022/09/29 05:58:19;;;;;;;;;;;27.30;99.90;;;;;;4218465;28;19932;-69
2022/09/29 06:00:24;;;;;;;;;;;27.30;99.90;;;;;;4217632;28;19974;-68
2022/09/29 06:02:32;;;;;;;;;;;27.30;99.90;;;;;;4208741;28;20042;-68
2022/09/29 06:04:37;;;;;;;;;;;27.30;99.90;;;;;;4211697;28;19935;-68
2022/09/29 06:06:43;;;;;;;;;;;27.30;99.90;;;;;;4219551;28;19928;-68
2022/09/29 06:08:47;;;;;;;;;;;27.40;99.90;;;;;;4221270;28;19927;-68
2022/09/29 06:10:51;;;;;;;;;;;27.30;99.90;;;;;;4227937;28;19959;-68
2022/09/29 06:12:55;;;;;;;;;;;27.30;99.90;;;;;;4200001;28;19932;-67
2022/09/29 06:15:11;;;;;;;;;;;27.30;99.90;;;;;;4211243;28;19973;-67
2022/09/29 06:17:18;;;;;;;;;;;27.30;99.90;;;;;;4217223;28;19927;-67
2022/09/29 06:19:22;;;;;;;;;;;27.30;99.90;;;;;;4211143;28;19928;-67
2022/09/29 06:21:26;;;;;;;;;;;27.20;99.90;;;;;;4193963;28;20027;-67
2022/09/29 06:23:32;;;;;;;;;;;27.20;99.90;;;;;;4208690;28;19932;-67
2022/09/29 06:25:37;;;;;;;;;;;27.20;99.90;;;;;;4224331;28;19956;-68
2022/09/29 06:27:41;;;;;;;;;;;27.20;99.90;;;;;;4206122;28;19928;-68
2022/09/29 06:29:45;;;;;;;;;;;27.20;99.90;;;;;;4190548;28;20014;-67
2022/09/29 06:31:50;;;;;;;;;;;27.30;99.90;;;;;;4213855;28;19967;-68
2022/09/29 06:33:58;;;;;;;;;;;27.30;99.90;;;;;;4218843;28;19924;-68
2022/09/29 06:38:24;;;;;;;;;;;27.30;99.90;;;;;;4212965;28;19985;-68
2022/09/29 06:40:29;;;;;;;;;;;27.30;99.90;;;;;;4216539;28;19955;-68
2022/09/29 06:42:34;;;;;;;;;;;27.30;99.90;;;;;;4227709;28;19938;-68
2022/09/29 06:44:54;;;;;;;;;;;27.30;99.90;;;;;;4204838;28;20027;-68
2022/09/29 06:46:59;;;;;;;;;;;27.30;99.90;;;;;;4210982;28;20308;-68
2022/09/29 06:49:05;;;;;;;;;;;27.30;99.90;;;;;;4192849;28;19936;-68
2022/09/29 06:51:13;;;;;;;;;;;27.40;99.90;;;;;;4215871;28;19928;-67
2022/09/29 06:53:22;;;;;;;;;;;27.40;99.90;;;;;;4207637;28;19950;-68
2022/09/29 06:55:41;;;;;;;;;;;27.40;99.90;;;;;;4219869;28;19934;-68
2022/09/29 06:57:46;;;;;;;;;;;27.50;99.90;;;;;;4211029;28;19954;-68
2022/09/29 06:59:53;;;;;;;;;;;27.40;99.90;;;;;;4206970;28;19932;-68
2022/09/29 07:01:58;;;;;;;;;;;27.30;99.90;;;;;;4210423;28;20375;-69
2022/09/29 07:04:06;;;;;;;;;;;27.30;99.90;;;;;;4209696;28;19940;-69
2022/09/29 07:06:11;;;;;;;;;;;27.20;99.90;;;;;;4197991;28;19956;-68
2022/09/29 07:08:23;;;;;;;;;;;27.10;99.90;;;;;;4209361;28;19928;-68
2022/09/29 07:10:30;;;;;;;;;;;27.10;99.90;;;;;;4207373;28;20757;-68
2022/09/29 07:12:35;;;;;;;;;;;27.20;99.90;;;;;;4208025;28;19934;-68
2022/09/29 07:14:43;;;;;;;;;;;27.30;99.90;;;;;;4213617;28;19955;-68
2022/09/29 07:16:51;;;;;;;;;;;27.30;99.90;;;;;;4186562;28;20082;-68
2022/09/29 07:18:56;;;;;;;;;;;27.30;99.90;;;;;;4208903;28;19928;-68
2022/09/29 07:21:04;;;;;;;;;;;27.40;99.90;;;;;;4198635;28;20369;-68
2022/09/29 07:23:08;;;;;;;;;;;27.50;99.90;;;;;;4222631;28;20640;-68
2022/09/29 07:25:14;;;;;;;;;;;27.60;99.90;;;;;;4218834;28;19928;-68
2022/09/29 07:27:47;;;;;;;;;;;27.60;99.90;;;;;;4204792;28;20038;-68
2022/09/29 07:29:52;;;;;;;;;;;27.60;99.90;;;;;;4226653;28;19940;-68
2022/09/29 07:32:06;;;;;;;;;;;27.60;99.90;;;;;;4222693;28;20009;-68
2022/09/29 07:34:28;;;;;;;;;;;27.60;99.90;;;;;;4211902;28;19947;-68
2022/09/29 07:36:37;;;;;;;;;;;27.60;99.90;;;;;;4197866;28;19939;-68
2022/09/29 07:38:49;;;;;;;;;;;27.60;99.90;;;;;;4225209;28;20417;-68
2022/09/29 07:41:05;;;;;;;;;;;27.70;99.90;;;;;;4226156;28;19932;-68
2022/09/29 07:43:18;;;;;;;;;;;27.60;99.90;;;;;;4194965;28;19939;-69
2022/09/29 07:45:24;;;;;;;;;;;27.70;99.90;;;;;;4179902;28;19929;-68
2022/09/29 07:47:30;;;;;;;;;;;27.60;99.90;;;;;;4219756;28;19935;-69
2022/09/29 07:49:36;;;;;;;;;;;27.50;99.90;;;;;;4210354;28;19928;-69
2022/09/29 07:51:40;;;;;;;;;;;27.40;99.90;;;;;;4192080;28;19952;-69
2022/09/29 07:53:45;;;;;;;;;;;27.40;99.90;;;;;;4217180;28;20042;-68
2022/09/29 07:55:49;;;;;;;;;;;27.40;99.90;;;;;;4189466;28;19935;-68
2022/09/29 07:57:55;;;;;;;;;;;27.40;99.90;;;;;;4172610;28;19932;-68
2022/09/29 08:00:00;;;;;;;;;;;27.50;99.90;;;;;;4187219;28;19936;-70
2022/09/29 08:02:14;;;;;;;;;;;27.60;99.90;;;;;;4189234;28;20416;-69
2022/09/29 08:04:21;;;;;;;;;;;27.60;99.90;;;;;;4191670;28;19932;-69
2022/09/29 08:06:26;;;;;;;;;;;27.50;99.90;;;;;;4178459;28;19933;-68
2022/09/29 08:08:30;;;;;;;;;;;27.60;99.90;;;;;;4193881;28;20386;-68
2022/09/29 08:10:34;;;;;;;;;;;27.60;99.90;;;;;;4187650;28;20434;-68
2022/09/29 08:12:55;;;;;;;;;;;27.60;99.90;;;;;;4190470;28;20019;-69
2022/09/29 08:15:04;;;;;;;;;;;27.60;99.90;;;;;;4213242;28;20008;-68
2022/09/29 08:17:10;;;;;;;;;;;27.60;99.90;;;;;;4225094;28;20026;-68
2022/09/29 08:19:14;;;;;;;;;;;27.60;99.90;;;;;;4216840;28;19928;-68
2022/09/29 08:21:20;;;;;;;;;;;27.40;99.90;;;;;;4224119;28;19932;-67
2022/09/29 08:23:24;;;;;;;;;;;27.40;99.90;;;;;;4187737;28;19928;-67
2022/09/29 08:25:30;;;;;;;;;;;27.30;99.90;;;;;;4188147;28;20069;-68
2022/09/29 08:27:34;;;;;;;;;;;27.40;99.90;;;;;;4191496;28;20481;-70
2022/09/29 08:29:55;;;;;;;;;;;27.50;99.90;;;;;;4205309;28;19932;-69
2022/09/29 08:32:01;;;;;;;;;;;27.50;99.90;;;;;;4209032;28;20554;-69
2022/09/29 08:34:06;;;;;;;;;;;27.50;99.90;;;;;;4208211;28;19950;-69
2022/09/29 08:36:14;;;;;;;;;;;27.50;99.90;;;;;;4195132;28;19963;-68
2022/09/29 08:38:18;;;;;;;;;;;27.30;99.90;;;;;;4201441;28;19928;-68
2022/09/29 08:40:26;;;;;;;;;;;27.20;99.90;;;;;;4194423;28;20682;-70
2022/09/29 08:42:50;;;;;;;;;;;27.20;99.90;;;;;;4223330;28;19992;-70
2022/09/29 08:45:00;;;;;;;;;;;27.20;99.90;;;;;;4183343;28;19928;-69
2022/09/29 08:47:28;;;;;;;;;;;27.10;99.90;;;;;;4197745;28;20309;-69
2022/09/29 08:49:53;;;;;;;;;;;27.10;99.90;;;;;;4225588;28;19928;-69
2022/09/29 08:51:58;;;;;;;;;;;27.10;99.90;;;;;;4190619;28;20413;-69
2022/09/29 08:54:21;;;;;;;;;;;27.10;99.90;;;;;;4204603;28;20034;-70
2022/09/29 08:56:40;;;;;;;;;;;27.10;99.90;;;;;;4204544;28;19927;-69
2022/09/29 08:58:44;;;;;;;;;;;27.10;99.90;;;;;;4208843;28;19927;-69
2022/09/29 09:00:59;;;;;;;;;;;27.00;99.90;;;;;;4208685;28;19935;-69
2022/09/29 09:03:16;;;;;;;;;;;27.00;99.90;;;;;;4207618;28;19928;-70
2022/09/29 09:05:34;;;;;;;;;;;27.00;99.90;;;;;;4207545;28;19963;-68
2022/09/29 09:07:50;;;;;;;;;;;27.00;99.90;;;;;;4215024;28;20271;-68
2022/09/29 09:10:07;;;;;;;;;;;26.90;99.90;;;;;;4217553;28;20609;-68
2022/09/29 09:12:31;;;;;;;;;;;26.90;99.90;;;;;;4185804;28;19932;-69
2022/09/29 09:14:41;;;;;;;;;;;26.90;99.90;;;;;;4187603;28;19937;-69
2022/09/29 09:16:58;;;;;;;;;;;26.90;99.90;;;;;;4223708;28;19928;-69
2022/09/29 09:19:11;;;;;;;;;;;26.90;99.90;;;;;;4200188;28;20434;-69
2022/09/29 09:21:18;;;;;;;;;;;26.80;99.90;;;;;;4221483;28;20473;-69
2022/09/29 09:23:26;;;;;;;;;;;26.70;99.90;;;;;;4207308;28;20287;-69
2022/09/29 09:25:31;;;;;;;;;;;26.80;99.90;;;;;;4219091;28;20007;-69
2022/09/29 09:27:36;;;;;;;;;;;26.80;99.90;;;;;;4200724;28;19962;-69
2022/09/29 09:29:41;;;;;;;;;;;26.80;99.90;;;;;;4221066;28;20402;-69
2022/09/29 09:32:00;;;;;;;;;;;26.70;99.90;;;;;;4211347;28;19935;-69
2022/09/29 09:34:06;;;;;;;;;;;26.60;99.90;;;;;;4220393;28;19924;-69
2022/09/29 09:36:12;;;;;;;;;;;26.60;99.90;;;;;;4224147;28;19951;-68
2022/09/29 09:38:27;;;;;;;;;;;26.70;99.90;;;;;;4190753;28;19951;-74
2022/09/29 09:40:35;;;;;;;;;;;26.60;99.90;;;;;;4224642;28;19932;-71
2022/09/29 09:42:41;;;;;;;;;;;26.70;99.90;;;;;;4221083;28;19928;-70
2022/09/29 09:44:49;;;;;;;;;;;26.60;99.90;;;;;;4213885;28;19993;-70
2022/09/29 09:47:13;;;;;;;;;;;26.60;99.90;;;;;;4208688;28;19931;-68
2022/09/29 09:49:26;;;;;;;;;;;26.60;99.90;;;;;;4203897;28;19932;-68
2022/09/29 09:51:49;;;;;;;;;;;26.70;99.90;;;;;;4221251;28;20672;-67
2022/09/29 09:53:53;;;;;;;;;;;26.70;99.90;;;;;;4224462;28;20813;-68
2022/09/29 09:56:02;;;;;;;;;;;26.70;99.90;;;;;;4208599;28;19928;-69
2022/09/29 09:58:19;;;;;;;;;;;26.70;99.90;;;;;;4207630;28;20022;-69
2022/09/29 10:00:25;;;;;;;;;;;26.80;99.90;;;;;;4199515;28;20060;-69
2022/09/29 10:02:29;;;;;;;;;;;26.80;99.90;;;;;;4213796;28;20010;-68
2022/09/29 10:04:34;;;;;;;;;;;26.80;99.90;;;;;;4203688;28;19939;-69
2022/09/29 10:06:38;;;;;;;;;;;26.80;99.90;;;;;;4189546;28;19928;-69
2022/09/29 10:08:42;;;;;;;;;;;26.70;99.90;;;;;;4212614;28;19934;-69
2022/09/29 10:10:46;;;;;;;;;;;26.70;99.90;;;;;;4208627;28;19963;-68
2022/09/29 10:13:08;;;;;;;;;;;26.70;99.90;;;;;;4202845;28;19935;-67
2022/09/29 10:15:24;;;;;;;;;;;26.70;99.90;;;;;;4213912;28;19948;-67
2022/09/29 10:17:37;;;;;;;;;;;26.60;99.90;;;;;;4210826;28;19939;-67
2022/09/29 10:19:56;;;;;;;;;;;26.70;99.90;;;;;;4203641;28;19928;-68
2022/09/29 10:22:14;;;;;;;;;;;26.70;99.90;;;;;;4208702;28;20030;-67
2022/09/29 10:24:26;;;;;;;;;;;26.70;99.90;;;;;;4218096;28;19927;-69
2022/09/29 10:26:39;;;;;;;;;;;26.60;99.90;;;;;;4195387;28;19971;-67
2022/09/29 10:28:48;;;;;;;;;;;26.60;99.90;;;;;;4210220;28;20034;-67
2022/09/29 10:30:53;;;;;;;;;;;26.60;99.90;;;;;;4205247;28;19932;-69
2022/09/29 10:33:00;;;;;;;;;;;26.50;99.90;;;;;;4206265;28;19928;-67
2022/09/29 10:35:09;;;;;;;;;;;26.60;99.90;;;;;;4210547;28;20585;-68
2022/09/29 10:37:35;;;;;;;;;;;26.60;99.90;;;;;;4191958;28;19971;-67
2022/09/29 10:39:41;;;;;;;;;;;26.60;99.90;;;;;;4209345;28;20084;-68
2022/09/29 10:41:53;;;;;;;;;;;26.40;99.90;;;;;;4213296;28;19932;-68
2022/09/29 10:43:57;;;;;;;;;;;26.50;99.90;;;;;;4207897;28;20407;-67
2022/09/29 10:46:02;;;;;;;;;;;26.60;99.90;;;;;;4188482;28;19928;-67
2022/09/29 10:48:09;;;;;;;;;;;26.50;99.90;;;;;;4210771;28;19928;-68
2022/09/29 10:50:15;;;;;;;;;;;26.50;99.90;;;;;;4209424;28;19931;-67
2022/09/29 10:52:26;;;;;;;;;;;26.60;99.90;;;;;;4208674;28;19934;-68
2022/09/29 10:54:35;;;;;;;;;;;26.50;99.90;;;;;;4207001;28;20023;-67
2022/09/29 10:56:45;;;;;;;;;;;26.50;99.90;;;;;;4186982;28;19929;-67
2022/09/29 10:58:54;;;;;;;;;;;26.50;99.90;;;;;;4207404;28;20023;-69
2022/09/29 11:01:11;;;;;;;;;;;26.40;99.90;;;;;;4208760;28;19928;-69
2022/09/29 11:03:18;;;;;;;;;;;26.40;99.90;;;;;;4209307;28;19936;-75
2022/09/29 11:05:26;;;;;;;;;;;26.40;99.90;;;;;;4209058;28;20138;-70
2022/09/29 11:07:30;;;;;;;;;;;26.40;99.90;;;;;;4207232;28;19997;-73
2022/09/29 11:09:37;;;;;;;;;;;26.40;99.90;;;;;;4204545;28;19932;-69
2022/09/29 11:12:01;;;;;;;;;;;26.40;99.90;;;;;;4210326;28;19928;-69
2022/09/29 11:14:23;;;;;;;;;;;26.40;99.90;;;;;;4204115;28;20355;-68
2022/09/29 11:16:32;;;;;;;;;;;26.40;99.90;;;;;;4204006;28;20023;-71
2022/09/29 11:18:36;;;;;;;;;;;26.30;99.90;;;;;;4206276;28;19971;-69
2022/09/29 11:20:40;;;;;;;;;;;26.40;99.90;;;;;;4186839;28;19935;-70
2022/09/29 11:23:04;;;;;;;;;;;26.40;99.90;;;;;;4198065;28;19939;-71
2022/09/29 11:25:29;;;;;;;;;;;26.40;99.90;;;;;;4203606;28;19932;-70
2022/09/29 11:27:53;;;;;;;;;;;26.40;99.90;;;;;;4202742;28;19963;-69
2022/09/29 11:30:02;;;;;;;;;;;26.40;99.90;;;;;;4183914;28;20896;-70
2022/09/29 11:32:11;;;;;;;;;;;26.40;99.90;;;;;;4205254;28;19927;-68
2022/09/29 11:34:29;;;;;;;;;;;26.40;99.90;;;;;;4203110;28;19935;-68
2022/09/29 11:36:53;;;;;;;;;;;26.40;99.90;;;;;;4205851;28;20000;-70
2022/09/29 11:39:07;;;;;;;;;;;26.40;99.90;;;;;;4208034;28;19953;-69
2022/09/29 11:41:30;;;;;;;;;;;26.40;99.90;;;;;;4206440;28;19928;-70
2022/09/29 11:43:43;;;;;;;;;;;26.40;99.90;;;;;;4207106;28;19978;-70
2022/09/29 11:46:07;;;;;;;;;;;26.40;99.90;;;;;;4186572;28;19928;-70
2022/09/29 11:48:31;;;;;;;;;;;26.40;99.90;;;;;;4206055;28;19932;-69
2022/09/29 11:50:45;;;;;;;;;;;26.30;99.90;;;;;;4204318;28;20101;-68
2022/09/29 11:52:53;;;;;;;;;;;26.40;99.90;;;;;;4208708;28;20399;-69
2022/09/29 11:55:10;;;;;;;;;;;26.40;99.90;;;;;;4205408;28;19942;-71
2022/09/29 11:57:42;;;;;;;;;;;26.40;99.90;;;;;;4211189;28;20653;-72
2022/09/29 12:00:03;;;;;;;;;;;26.40;99.90;;;;;;4208710;28;19935;-72
2022/09/29 12:02:20;;;;;;;;;;;26.40;99.90;;;;;;4190710;28;20407;-71
2022/09/29 12:04:38;;;;;;;;;;;26.40;99.90;;;;;;4202986;28;19932;-70
2022/09/29 12:06:52;;;;;;;;;;;26.40;99.90;;;;;;4202502;28;19939;-70
2022/09/29 12:09:16;;;;;;;;;;;26.40;99.90;;;;;;4206303;28;20465;-71
2022/09/29 12:11:33;;;;;;;;;;;26.40;99.90;;;;;;4205905;28;19932;-72
2022/09/29 12:14:16;;;;;;;;;;;26.40;99.90;;;;;;4210812;28;21018;-71
2022/09/29 12:16:22;;;;;;;;;;;26.30;99.90;;;;;;4209781;28;19936;-73
2022/09/29 12:18:35;;;;;;;;;;;26.30;99.90;;;;;;4206826;28;19974;-72
2022/09/29 12:20:45;;;;;;;;;;;26.30;99.90;;;;;;4209129;28;19928;-74
2022/09/29 12:22:50;;;;;;;;;;;26.40;99.90;;;;;;4207375;28;19928;-72
2022/09/29 12:24:55;;;;;;;;;;;26.30;99.90;;;;;;4211062;28;19932;-73
2022/09/29 12:27:00;;;;;;;;;;;26.40;99.90;;;;;;4188793;28;19938;-74
2022/09/29 12:29:07;;;;;;;;;;;26.20;99.90;;;;;;4208227;28;20023;-72
2022/09/29 12:31:45;;;;;;;;;;;26.20;99.90;;;;;;4192451;28;19929;-72
2022/09/29 12:34:04;;;;;;;;;;;26.20;99.90;;;;;;4197513;28;20685;-73
2022/09/29 12:38:42;;;;;;;;;;;26.20;99.90;;;;;;4193048;28;19977;-73
2022/09/29 12:40:59;;;;;;;;;;;26.20;99.90;;;;;;4203093;28;19928;-70